sensor_id;sensor_type;location;lat;lon;timestamp;temperature;humidity
52471;DHT22;38382;53.160;7.026;2023-04-03T00:02:15;2.10;99.90
52471;DHT22;38382;53.160;7.026;2023-04-03T00:04:41;1.20;99.90
52471;DHT22;38382;53.160;7.026;2023-04-03T00:07:07;1.00;99.90
52471;DHT22;38382;53.160;7.026;2023-04-03T00:09:32;2.30;99.90
52471;DHT22;38382;53.160;7.026;2023-04-03T00:11:58;1.10;99.90
52471;DHT22;38382;53.160;7.026;2023-04-03T00:14:24;1.70;99.90
52471;DHT22;38382;53.160;7.026;2023-04-03T00:16:50;2.20;99.90
52471;DHT22;38382;53.160;7.026;2023-04-03T00:19:15;0.80;99.90
52471;DHT22;38382;53.160;7.026;2023-04-03T00:21:41;0.80;99.90
52471;DHT22;38382;53.160;7.026;2023-04-03T00:24:07;0.80;99.90
52471;DHT22;38382;53.160;7.026;2023-04-03T00:26:32;0.80;99.90
52471;DHT22;38382;53.160;7.026;2023-04-03T00:28:58;1.70;99.90
52471;DHT22;38382;53.160;7.026;2023-04-03T00:31:24;0.80;99.90
52471;DHT22;38382;53.160;7.026;2023-04-03T00:33:50;1.90;99.90
52471;DHT22;38382;53.160;7.026;2023-04-03T00:36:16;0.70;99.90
52471;DHT22;38382;53.160;7.026;2023-04-03T00:38:41;0.70;99.90
52471;DHT22;38382;53.160;7.026;2023-04-03T00:41:07;1.50;99.90
52471;DHT22;38382;53.160;7.026;2023-04-03T00:43:33;0.60;99.90
52471;DHT22;38382;53.160;7.026;2023-04-03T00:45:59;0.60;99.90
52471;DHT22;38382;53.160;7.026;2023-04-03T00:48:41;0.60;99.90
52471;DHT22;38382;53.160;7.026;2023-04-03T00:51:13;0.60;99.90
52471;DHT22;38382;53.160;7.026;2023-04-03T00:53:44;0.50;99.90
52471;DHT22;38382;53.160;7.026;2023-04-03T00:56:12;0.50;99.90
52471;DHT22;38382;53.160;7.026;2023-04-03T00:58:52;1.50;99.90
52471;DHT22;38382;53.160;7.026;2023-04-03T01:01:22;0.50;99.90
52471;DHT22;38382;53.160;7.026;2023-04-03T01:03:49;0.50;99.90
52471;DHT22;38382;53.160;7.026;2023-04-03T01:06:17;1.30;99.90
52471;DHT22;38382;53.160;7.026;2023-04-03T01:08:48;1.70;99.90
52471;DHT22;38382;53.160;7.026;2023-04-03T01:11:14;0.50;99.90
52471;DHT22;38382;53.160;7.026;2023-04-03T01:13:40;0.70;99.90
52471;DHT22;38382;53.160;7.026;2023-04-03T01:16:06;1.80;99.90
52471;DHT22;38382;53.160;7.026;2023-04-03T01:18:33;1.20;99.90
52471;DHT22;38382;53.160;7.026;2023-04-03T01:24:11;0.60;99.90
52471;DHT22;38382;53.160;7.026;2023-04-03T01:26:41;0.90;99.90
52471;DHT22;38382;53.160;7.026;2023-04-03T01:29:07;1.80;99.90
52471;DHT22;38382;53.160;7.026;2023-04-03T01:31:46;0.90;99.90
52471;DHT22;38382;53.160;7.026;2023-04-03T01:34:12;0.50;99.90
52471;DHT22;38382;53.160;7.026;2023-04-03T01:36:38;0.50;99.90
52471;DHT22;38382;53.160;7.026;2023-04-03T01:39:03;0.50;99.90
52471;DHT22;38382;53.160;7.026;2023-04-03T01:41:29;0.40;99.90
52471;DHT22;38382;53.160;7.026;2023-04-03T01:43:55;0.40;99.90
52471;DHT22;38382;53.160;7.026;2023-04-03T01:46:21;0.70;99.90
52471;DHT22;38382;53.160;7.026;2023-04-03T01:48:47;1.10;99.90
52471;DHT22;38382;53.160;7.026;2023-04-03T01:51:13;0.20;99.90
52471;DHT22;38382;53.160;7.026;2023-04-03T01:53:39;0.00;99.90
52471;DHT22;38382;53.160;7.026;2023-04-03T01:56:11;0.20;99.90
52471;DHT22;38382;53.160;7.026;2023-04-03T01:58:36;0.20;99.90
52471;DHT22;38382;53.160;7.026;2023-04-03T02:01:02;0.90;99.90
52471;DHT22;38382;53.160;7.026;2023-04-03T02:03:28;0.20;99.90
52471;DHT22;38382;53.160;7.026;2023-04-03T02:05:53;0.70;99.90
52471;DHT22;38382;53.160;7.026;2023-04-03T02:08:19;0.20;99.90
52471;DHT22;38382;53.160;7.026;2023-04-03T02:10:49;0.20;99.90
52471;DHT22;38382;53.160;7.026;2023-04-03T02:13:16;0.10;99.90
52471;DHT22;38382;53.160;7.026;2023-04-03T02:15:42;0.70;99.90
52471;DHT22;38382;53.160;7.026;2023-04-03T02:18:08;0.10;99.90
52471;DHT22;38382;53.160;7.026;2023-04-03T02:20:34;0.00;99.90
52471;DHT22;38382;53.160;7.026;2023-04-03T02:23:00;0.00;99.90
52471;DHT22;38382;53.160;7.026;2023-04-03T02:25:26;0.00;99.90
52471;DHT22;38382;53.160;7.026;2023-04-03T02:27:52;0.20;99.90
52471;DHT22;38382;53.160;7.026;2023-04-03T02:30:18;1.20;99.90
52471;DHT22;38382;53.160;7.026;2023-04-03T02:32:44;1.00;99.90
52471;DHT22;38382;53.160;7.026;2023-04-03T02:35:11;0.10;99.90
52471;DHT22;38382;53.160;7.026;2023-04-03T02:37:37;1.50;99.90
52471;DHT22;38382;53.160;7.026;2023-04-03T02:40:03;-0.20;99.90
52471;DHT22;38382;53.160;7.026;2023-04-03T02:42:29;-0.20;99.90
52471;DHT22;38382;53.160;7.026;2023-04-03T02:44:55;-0.30;99.90
52471;DHT22;38382;53.160;7.026;2023-04-03T02:47:21;0.70;99.90
52471;DHT22;38382;53.160;7.026;2023-04-03T02:49:47;-0.40;99.90
52471;DHT22;38382;53.160;7.026;2023-04-03T02:52:13;1.20;99.90
52471;DHT22;38382;53.160;7.026;2023-04-03T02:54:39;-0.50;99.90
52471;DHT22;38382;53.160;7.026;2023-04-03T02:57:06;1.00;99.90
52471;DHT22;38382;53.160;7.026;2023-04-03T02:59:35;0.40;99.90
52471;DHT22;38382;53.160;7.026;2023-04-03T03:02:01;0.50;99.90
52471;DHT22;38382;53.160;7.026;2023-04-03T03:04:26;-0.60;99.90
52471;DHT22;38382;53.160;7.026;2023-04-03T03:06:52;-0.80;99.90
52471;DHT22;38382;53.160;7.026;2023-04-03T03:09:18;-0.20;99.90
52471;DHT22;38382;53.160;7.026;2023-04-03T03:11:44;0.70;99.90
52471;DHT22;38382;53.160;7.026;2023-04-03T03:14:09;-0.90;99.90
52471;DHT22;38382;53.160;7.026;2023-04-03T03:16:35;-0.90;99.90
52471;DHT22;38382;53.160;7.026;2023-04-03T03:21:27;-0.90;99.90
52471;DHT22;38382;53.160;7.026;2023-04-03T03:23:53;-0.90;99.90
52471;DHT22;38382;53.160;7.026;2023-04-03T03:26:19;-0.80;99.90
52471;DHT22;38382;53.160;7.026;2023-04-03T03:28:45;-0.20;99.90
52471;DHT22;38382;53.160;7.026;2023-04-03T03:31:11;0.80;99.90
52471;DHT22;38382;53.160;7.026;2023-04-03T03:33:37;0.30;99.90
52471;DHT22;38382;53.160;7.026;2023-04-03T03:36:03;0.80;99.90
52471;DHT22;38382;53.160;7.026;2023-04-03T03:38:29;-0.80;99.90
52471;DHT22;38382;53.160;7.026;2023-04-03T03:40:55;0.90;99.90
52471;DHT22;38382;53.160;7.026;2023-04-03T03:43:21;-1.10;99.90
52471;DHT22;38382;53.160;7.026;2023-04-03T03:45:53;-0.80;99.90
52471;DHT22;38382;53.160;7.026;2023-04-03T03:48:20;0.40;99.90
52471;DHT22;38382;53.160;7.026;2023-04-03T03:50:46;0.90;99.90
52471;DHT22;38382;53.160;7.026;2023-04-03T03:53:12;-0.20;99.90
52471;DHT22;38382;53.160;7.026;2023-04-03T03:55:38;0.90;99.90
52471;DHT22;38382;53.160;7.026;2023-04-03T03:58:04;1.30;99.90
52471;DHT22;38382;53.160;7.026;2023-04-03T04:00:30;0.40;99.90
52471;DHT22;38382;53.160;7.026;2023-04-03T04:02:56;-1.20;99.90
52471;DHT22;38382;53.160;7.026;2023-04-03T04:05:22;0.50;99.90
52471;DHT22;38382;53.160;7.026;2023-04-03T04:07:48;0.80;99.90
52471;DHT22;38382;53.160;7.026;2023-04-03T04:10:14;1.20;99.90
52471;DHT22;38382;53.160;7.026;2023-04-03T04:12:40;-1.00;99.90
52471;DHT22;38382;53.160;7.026;2023-04-03T04:15:06;-1.10;99.90
52471;DHT22;38382;53.160;7.026;2023-04-03T04:17:32;-0.90;99.90
52471;DHT22;38382;53.160;7.026;2023-04-03T04:19:58;-1.00;99.90
52471;DHT22;38382;53.160;7.026;2023-04-03T04:22:23;-1.20;99.90
52471;DHT22;38382;53.160;7.026;2023-04-03T04:24:49;1.10;99.90
52471;DHT22;38382;53.160;7.026;2023-04-03T04:27:15;0.90;99.90
52471;DHT22;38382;53.160;7.026;2023-04-03T04:29:41;0.70;99.90
52471;DHT22;38382;53.160;7.026;2023-04-03T04:32:07;-1.30;99.90
52471;DHT22;38382;53.160;7.026;2023-04-03T04:34:34;-0.70;99.90
52471;DHT22;38382;53.160;7.026;2023-04-03T04:37:09;-1.40;99.90
52471;DHT22;38382;53.160;7.026;2023-04-03T04:39:40;0.00;99.90
52471;DHT22;38382;53.160;7.026;2023-04-03T04:42:06;-1.30;99.90
52471;DHT22;38382;53.160;7.026;2023-04-03T04:44:32;0.50;99.90
52471;DHT22;38382;53.160;7.026;2023-04-03T04:46:58;-1.20;99.90
52471;DHT22;38382;53.160;7.026;2023-04-03T04:49:24;-1.90;99.90
52471;DHT22;38382;53.160;7.026;2023-04-03T04:51:50;-1.50;99.90
52471;DHT22;38382;53.160;7.026;2023-04-03T04:54:15;-1.70;99.90
52471;DHT22;38382;53.160;7.026;2023-04-03T04:56:41;-1.60;99.90
52471;DHT22;38382;53.160;7.026;2023-04-03T04:59:07;-1.30;99.90
52471;DHT22;38382;53.160;7.026;2023-04-03T05:01:32;-1.60;99.90
52471;DHT22;38382;53.160;7.026;2023-04-03T05:03:58;-1.60;99.90
52471;DHT22;38382;53.160;7.026;2023-04-03T05:06:24;-1.40;99.90
52471;DHT22;38382;53.160;7.026;2023-04-03T05:08:49;-1.60;99.90
52471;DHT22;38382;53.160;7.026;2023-04-03T05:11:15;0.20;99.90
52471;DHT22;38382;53.160;7.026;2023-04-03T05:13:41;-1.70;99.90
52471;DHT22;38382;53.160;7.026;2023-04-03T05:16:07;0.10;99.90
52471;DHT22;38382;53.160;7.026;2023-04-03T05:18:32;-0.20;99.90
52471;DHT22;38382;53.160;7.026;2023-04-03T05:20:58;-1.70;99.90
52471;DHT22;38382;53.160;7.026;2023-04-03T05:23:24;-0.80;99.90
52471;DHT22;38382;53.160;7.026;2023-04-03T05:25:50;-0.90;99.90
52471;DHT22;38382;53.160;7.026;2023-04-03T05:28:16;-1.20;99.90
52471;DHT22;38382;53.160;7.026;2023-04-03T05:30:41;-1.80;99.90
52471;DHT22;38382;53.160;7.026;2023-04-03T05:33:07;-1.70;99.90
52471;DHT22;38382;53.160;7.026;2023-04-03T05:35:36;-1.70;99.90
52471;DHT22;38382;53.160;7.026;2023-04-03T05:38:02;-0.10;99.90
52471;DHT22;38382;53.160;7.026;2023-04-03T05:40:27;-0.30;99.90
52471;DHT22;38382;53.160;7.026;2023-04-03T05:42:53;-0.50;99.90
52471;DHT22;38382;53.160;7.026;2023-04-03T05:45:19;-1.70;99.90
52471;DHT22;38382;53.160;7.026;2023-04-03T05:47:45;-0.60;99.90
52471;DHT22;38382;53.160;7.026;2023-04-03T05:50:11;-1.60;99.90
52471;DHT22;38382;53.160;7.026;2023-04-03T05:52:38;-1.60;99.90
52471;DHT22;38382;53.160;7.026;2023-04-03T05:55:06;-1.60;99.90
52471;DHT22;38382;53.160;7.026;2023-04-03T05:57:32;-1.50;99.90
52471;DHT22;38382;53.160;7.026;2023-04-03T05:59:57;-1.50;99.90
52471;DHT22;38382;53.160;7.026;2023-04-03T06:02:24;-0.70;99.90
52471;DHT22;38382;53.160;7.026;2023-04-03T06:04:50;-1.10;99.90
52471;DHT22;38382;53.160;7.026;2023-04-03T06:07:19;-1.30;99.90
52471;DHT22;38382;53.160;7.026;2023-04-03T06:09:46;-1.20;99.90
52471;DHT22;38382;53.160;7.026;2023-04-03T06:12:12;-1.00;99.90
52471;DHT22;38382;53.160;7.026;2023-04-03T06:14:38;-0.90;99.90
52471;DHT22;38382;53.160;7.026;2023-04-03T06:17:04;-0.80;99.90
52471;DHT22;38382;53.160;7.026;2023-04-03T06:19:30;0.10;99.90
52471;DHT22;38382;53.160;7.026;2023-04-03T06:21:56;-0.50;99.90
52471;DHT22;38382;53.160;7.026;2023-04-03T06:24:22;0.80;99.90
52471;DHT22;38382;53.160;7.026;2023-04-03T06:26:49;-0.10;99.90
52471;DHT22;38382;53.160;7.026;2023-04-03T06:29:17;0.00;99.90
52471;DHT22;38382;53.160;7.026;2023-04-03T06:31:43;0.50;99.90
52471;DHT22;38382;53.160;7.026;2023-04-03T06:34:09;0.20;99.90
52471;DHT22;38382;53.160;7.026;2023-04-03T06:36:36;0.60;99.90
52471;DHT22;38382;53.160;7.026;2023-04-03T06:39:02;1.90;99.90
52471;DHT22;38382;53.160;7.026;2023-04-03T06:41:28;0.70;99.90
52471;DHT22;38382;53.160;7.026;2023-04-03T06:43:54;0.60;99.90
52471;DHT22;38382;53.160;7.026;2023-04-03T06:46:23;2.60;99.90
52471;DHT22;38382;53.160;7.026;2023-04-03T06:48:49;0.80;99.90
52471;DHT22;38382;53.160;7.026;2023-04-03T06:51:21;0.90;99.90
52471;DHT22;38382;53.160;7.026;2023-04-03T06:53:48;1.70;99.90
52471;DHT22;38382;53.160;7.026;2023-04-03T06:56:14;1.10;99.90
52471;DHT22;38382;53.160;7.026;2023-04-03T06:58:41;2.60;99.90
52471;DHT22;38382;53.160;7.026;2023-04-03T07:01:08;1.10;99.90
52471;DHT22;38382;53.160;7.026;2023-04-03T07:03:36;1.40;99.90
52471;DHT22;38382;53.160;7.026;2023-04-03T07:06:04;1.50;99.90
52471;DHT22;38382;53.160;7.026;2023-04-03T07:08:31;1.70;99.90
52471;DHT22;38382;53.160;7.026;2023-04-03T07:10:57;1.80;99.90
52471;DHT22;38382;53.160;7.026;2023-04-03T07:13:23;1.90;99.90
52471;DHT22;38382;53.160;7.026;2023-04-03T07:15:49;2.10;99.90
52471;DHT22;38382;53.160;7.026;2023-04-03T07:18:15;2.70;99.90
52471;DHT22;38382;53.160;7.026;2023-04-03T07:20:42;2.80;99.90
52471;DHT22;38382;53.160;7.026;2023-04-03T07:23:08;2.40;99.90
52471;DHT22;38382;53.160;7.026;2023-04-03T07:25:35;2.50;99.90
52471;DHT22;38382;53.160;7.026;2023-04-03T07:28:00;2.70;99.90
52471;DHT22;38382;53.160;7.026;2023-04-03T07:30:27;3.90;99.90
52471;DHT22;38382;53.160;7.026;2023-04-03T07:32:53;3.90;99.90
52471;DHT22;38382;53.160;7.026;2023-04-03T07:35:19;3.30;99.90
52471;DHT22;38382;53.160;7.026;2023-04-03T07:37:45;3.10;99.90
52471;DHT22;38382;53.160;7.026;2023-04-03T07:40:11;4.00;99.90
52471;DHT22;38382;53.160;7.026;2023-04-03T07:42:37;3.20;99.90
52471;DHT22;38382;53.160;7.026;2023-04-03T07:45:04;4.20;99.90
52471;DHT22;38382;53.160;7.026;2023-04-03T07:47:30;3.50;99.90
52471;DHT22;38382;53.160;7.026;2023-04-03T07:49:57;3.60;99.90
52471;DHT22;38382;53.160;7.026;2023-04-03T07:52:23;3.80;99.90
52471;DHT22;38382;53.160;7.026;2023-04-03T07:54:49;4.70;99.90
52471;DHT22;38382;53.160;7.026;2023-04-03T07:57:15;4.30;99.90
52471;DHT22;38382;53.160;7.026;2023-04-03T07:59:42;4.40;99.90
52471;DHT22;38382;53.160;7.026;2023-04-03T08:02:12;4.30;99.90
52471;DHT22;38382;53.160;7.026;2023-04-03T08:04:38;4.50;99.90
52471;DHT22;38382;53.160;7.026;2023-04-03T08:07:04;4.60;99.90
52471;DHT22;38382;53.160;7.026;2023-04-03T08:09:30;4.80;99.90
52471;DHT22;38382;53.160;7.026;2023-04-03T08:11:57;5.40;99.90
52471;DHT22;38382;53.160;7.026;2023-04-03T08:14:23;5.00;99.90
52471;DHT22;38382;53.160;7.026;2023-04-03T08:16:49;5.10;99.90
52471;DHT22;38382;53.160;7.026;2023-04-03T08:19:15;5.20;99.90
52471;DHT22;38382;53.160;7.026;2023-04-03T08:21:44;5.40;99.90
52471;DHT22;38382;53.160;7.026;2023-04-03T08:24:10;5.80;99.90
52471;DHT22;38382;53.160;7.026;2023-04-03T08:26:36;6.20;99.90
52471;DHT22;38382;53.160;7.026;2023-04-03T08:29:02;5.70;99.90
52471;DHT22;38382;53.160;7.026;2023-04-03T08:31:28;5.90;99.90
52471;DHT22;38382;53.160;7.026;2023-04-03T08:33:53;6.00;99.90
52471;DHT22;38382;53.160;7.026;2023-04-03T08:36:28;6.30;99.90
52471;DHT22;38382;53.160;7.026;2023-04-03T08:38:55;7.60;99.90
52471;DHT22;38382;53.160;7.026;2023-04-03T08:44:13;6.60;99.90
52471;DHT22;38382;53.160;7.026;2023-04-03T08:49:42;6.90;99.90
52471;DHT22;38382;53.160;7.026;2023-04-03T08:52:19;7.10;99.90
52471;DHT22;38382;53.160;7.026;2023-04-03T08:54:52;7.30;99.90
52471;DHT22;38382;53.160;7.026;2023-04-03T08:57:39;7.40;99.90
52471;DHT22;38382;53.160;7.026;2023-04-03T09:00:26;7.60;99.90
52471;DHT22;38382;53.160;7.026;2023-04-03T09:02:55;7.90;99.90
52471;DHT22;38382;53.160;7.026;2023-04-03T09:08:12;8.30;99.90
52471;DHT22;38382;53.160;7.026;2023-04-03T09:10:40;8.50;99.90
52471;DHT22;38382;53.160;7.026;2023-04-03T09:15:38;8.80;99.90
52471;DHT22;38382;53.160;7.026;2023-04-03T09:18:13;8.90;99.90
52471;DHT22;38382;53.160;7.026;2023-04-03T09:23:33;9.30;99.90
52471;DHT22;38382;53.160;7.026;2023-04-03T09:26:31;9.50;99.70
52471;DHT22;38382;53.160;7.026;2023-04-03T09:28:59;9.60;97.70
52471;DHT22;38382;53.160;7.026;2023-04-03T09:31:29;9.70;97.00
52471;DHT22;38382;53.160;7.026;2023-04-03T09:34:03;9.90;98.60
52471;DHT22;38382;53.160;7.026;2023-04-03T09:39:18;10.20;94.50
52471;DHT22;38382;53.160;7.026;2023-04-03T09:42:06;10.30;93.60
52471;DHT22;38382;53.160;7.026;2023-04-03T09:44:41;10.30;90.00
52471;DHT22;38382;53.160;7.026;2023-04-03T09:47:32;10.50;94.40
52471;DHT22;38382;53.160;7.026;2023-04-03T09:52:50;10.90;91.00
52471;DHT22;38382;53.160;7.026;2023-04-03T09:55:27;11.00;91.00
52471;DHT22;38382;53.160;7.026;2023-04-03T09:57:57;11.20;90.50
52471;DHT22;38382;53.160;7.026;2023-04-03T10:00:28;11.30;89.70
52471;DHT22;38382;53.160;7.026;2023-04-03T10:02:56;11.50;89.90
52471;DHT22;38382;53.160;7.026;2023-04-03T10:05:33;11.70;88.00
52471;DHT22;38382;53.160;7.026;2023-04-03T10:08:33;11.80;85.30
52471;DHT22;38382;53.160;7.026;2023-04-03T10:11:08;12.10;80.30
52471;DHT22;38382;53.160;7.026;2023-04-03T10:13:35;12.30;80.10
52471;DHT22;38382;53.160;7.026;2023-04-03T10:16:13;12.50;82.80
52471;DHT22;38382;53.160;7.026;2023-04-03T10:18:53;12.50;78.00
52471;DHT22;38382;53.160;7.026;2023-04-03T10:22:18;12.80;78.80
52471;DHT22;38382;53.160;7.026;2023-04-03T10:27:23;12.80;73.50
52471;DHT22;38382;53.160;7.026;2023-04-03T10:30:04;13.00;77.10
52471;DHT22;38382;53.160;7.026;2023-04-03T10:38:48;13.50;68.40
52471;DHT22;38382;53.160;7.026;2023-04-03T10:44:16;13.90;73.50
52471;DHT22;38382;53.160;7.026;2023-04-03T10:46:55;13.90;67.70
52471;DHT22;38382;53.160;7.026;2023-04-03T10:49:47;13.90;67.90
52471;DHT22;38382;53.160;7.026;2023-04-03T10:52:24;14.00;66.20
52471;DHT22;38382;53.160;7.026;2023-04-03T10:57:30;14.30;66.10
52471;DHT22;38382;53.160;7.026;2023-04-03T11:00:06;14.40;68.90
52471;DHT22;38382;53.160;7.026;2023-04-03T11:05:30;14.30;61.30
52471;DHT22;38382;53.160;7.026;2023-04-03T11:08:04;14.40;63.60
52471;DHT22;38382;53.160;7.026;2023-04-03T11:10:42;14.30;64.00
52471;DHT22;38382;53.160;7.026;2023-04-03T11:13:34;14.50;64.30
52471;DHT22;38382;53.160;7.026;2023-04-03T11:16:03;14.80;61.30
52471;DHT22;38382;53.160;7.026;2023-04-03T11:18:52;14.90;65.70
52471;DHT22;38382;53.160;7.026;2023-04-03T11:21:24;15.00;62.60
52471;DHT22;38382;53.160;7.026;2023-04-03T11:23:53;15.10;64.80
52471;DHT22;38382;53.160;7.026;2023-04-03T11:26:27;15.20;65.50
52471;DHT22;38382;53.160;7.026;2023-04-03T11:29:00;15.40;63.70
52471;DHT22;38382;53.160;7.026;2023-04-03T11:34:24;15.50;63.50
52471;DHT22;38382;53.160;7.026;2023-04-03T11:36:58;15.40;56.40
52471;DHT22;38382;53.160;7.026;2023-04-03T11:39:32;15.60;62.00
52471;DHT22;38382;53.160;7.026;2023-04-03T11:45:28;15.60;57.60
52471;DHT22;38382;53.160;7.026;2023-04-03T11:48:41;15.70;61.80
52471;DHT22;38382;53.160;7.026;2023-04-03T11:50:54;15.90;63.50
52471;DHT22;38382;53.160;7.026;2023-04-03T11:56:00;16.10;60.00
52471;DHT22;38382;53.160;7.026;2023-04-03T11:58:30;16.20;62.60
52471;DHT22;38382;53.160;7.026;2023-04-03T12:01:06;16.30;61.30
52471;DHT22;38382;53.160;7.026;2023-04-03T12:11:14;16.90;63.90
52471;DHT22;38382;53.160;7.026;2023-04-03T12:21:21;17.30;60.50
52471;DHT22;38382;53.160;7.026;2023-04-03T12:31:55;17.60;56.70
52471;DHT22;38382;53.160;7.026;2023-04-03T12:40:30;17.60;58.30
52471;DHT22;38382;53.160;7.026;2023-04-03T12:45:46;17.50;52.60
52471;DHT22;38382;53.160;7.026;2023-04-03T12:48:16;17.40;55.10
52471;DHT22;38382;53.160;7.026;2023-04-03T12:50:45;17.50;57.10
52471;DHT22;38382;53.160;7.026;2023-04-03T12:53:35;17.70;58.00
52471;DHT22;38382;53.160;7.026;2023-04-03T12:56:38;18.00;58.70
52471;DHT22;38382;53.160;7.026;2023-04-03T12:59:18;18.70;53.80
52471;DHT22;38382;53.160;7.026;2023-04-03T13:01:44;19.20;52.90
52471;DHT22;38382;53.160;7.026;2023-04-03T13:04:18;19.40;55.10
52471;DHT22;38382;53.160;7.026;2023-04-03T13:06:44;19.80;54.70
52471;DHT22;38382;53.160;7.026;2023-04-03T13:12:26;20.00;55.30
52471;DHT22;38382;53.160;7.026;2023-04-03T13:14:58;20.10;52.50
52471;DHT22;38382;53.160;7.026;2023-04-03T13:17:25;20.10;52.70
52471;DHT22;38382;53.160;7.026;2023-04-03T13:19:53;20.20;52.80
52471;DHT22;38382;53.160;7.026;2023-04-03T13:24:54;20.40;49.10
52471;DHT22;38382;53.160;7.026;2023-04-03T13:27:20;20.30;52.50
52471;DHT22;38382;53.160;7.026;2023-04-03T13:29:52;20.50;53.20
52471;DHT22;38382;53.160;7.026;2023-04-03T13:32:23;20.50;52.20
52471;DHT22;38382;53.160;7.026;2023-04-03T13:34:50;20.60;52.70
52471;DHT22;38382;53.160;7.026;2023-04-03T13:37:28;20.50;52.90
52471;DHT22;38382;53.160;7.026;2023-04-03T13:42:35;21.10;53.50
52471;DHT22;38382;53.160;7.026;2023-04-03T13:45:24;21.40;53.10
52471;DHT22;38382;53.160;7.026;2023-04-03T13:48:06;21.70;50.90
52471;DHT22;38382;53.160;7.026;2023-04-03T13:50:33;21.50;52.30
52471;DHT22;38382;53.160;7.026;2023-04-03T13:53:12;21.60;52.10
52471;DHT22;38382;53.160;7.026;2023-04-03T13:58:30;21.70;50.60
52471;DHT22;38382;53.160;7.026;2023-04-03T14:01:20;21.90;50.30
52471;DHT22;38382;53.160;7.026;2023-04-03T14:03:55;22.10;51.00
52471;DHT22;38382;53.160;7.026;2023-04-03T14:06:22;22.20;50.00
52471;DHT22;38382;53.160;7.026;2023-04-03T14:08:49;22.20;49.60
52471;DHT22;38382;53.160;7.026;2023-04-03T14:13:45;22.00;48.20
52471;DHT22;38382;53.160;7.026;2023-04-03T14:16:23;22.30;49.60
52471;DHT22;38382;53.160;7.026;2023-04-03T14:18:51;22.50;48.70
52471;DHT22;38382;53.160;7.026;2023-04-03T14:21:19;22.50;47.00
52471;DHT22;38382;53.160;7.026;2023-04-03T14:23:45;22.50;46.50
52471;DHT22;38382;53.160;7.026;2023-04-03T14:26:14;22.70;47.30
52471;DHT22;38382;53.160;7.026;2023-04-03T14:28:42;22.80;48.10
52471;DHT22;38382;53.160;7.026;2023-04-03T14:31:09;23.00;47.60
52471;DHT22;38382;53.160;7.026;2023-04-03T14:33:35;23.50;47.00
52471;DHT22;38382;53.160;7.026;2023-04-03T14:36:09;23.80;47.20
52471;DHT22;38382;53.160;7.026;2023-04-03T14:38:36;24.40;47.00
52471;DHT22;38382;53.160;7.026;2023-04-03T14:41:02;24.90;46.20
52471;DHT22;38382;53.160;7.026;2023-04-03T14:43:28;25.30;45.20
52471;DHT22;38382;53.160;7.026;2023-04-03T14:45:54;25.90;44.70
52471;DHT22;38382;53.160;7.026;2023-04-03T14:48:25;26.20;44.10
52471;DHT22;38382;53.160;7.026;2023-04-03T14:50:52;26.70;43.40
52471;DHT22;38382;53.160;7.026;2023-04-03T14:53:19;27.10;44.20
52471;DHT22;38382;53.160;7.026;2023-04-03T14:55:48;27.40;43.20
52471;DHT22;38382;53.160;7.026;2023-04-03T14:58:17;27.70;42.30
52471;DHT22;38382;53.160;7.026;2023-04-03T15:00:44;28.10;42.80
52471;DHT22;38382;53.160;7.026;2023-04-03T15:03:17;28.60;41.70
52471;DHT22;38382;53.160;7.026;2023-04-03T15:05:44;28.30;40.20
52471;DHT22;38382;53.160;7.026;2023-04-03T15:08:21;28.40;40.90
52471;DHT22;38382;53.160;7.026;2023-04-03T15:10:48;28.50;39.80
52471;DHT22;38382;53.160;7.026;2023-04-03T15:13:14;28.20;39.50
52471;DHT22;38382;53.160;7.026;2023-04-03T15:15:41;28.30;39.30
52471;DHT22;38382;53.160;7.026;2023-04-03T15:18:09;28.60;39.50
52471;DHT22;38382;53.160;7.026;2023-04-03T15:20:41;28.80;39.20
52471;DHT22;38382;53.160;7.026;2023-04-03T15:23:10;29.10;39.70
52471;DHT22;38382;53.160;7.026;2023-04-03T15:25:37;29.20;39.20
52471;DHT22;38382;53.160;7.026;2023-04-03T15:28:03;29.30;38.60
52471;DHT22;38382;53.160;7.026;2023-04-03T15:30:28;29.10;38.10
52471;DHT22;38382;53.160;7.026;2023-04-03T15:32:54;29.20;38.30
52471;DHT22;38382;53.160;7.026;2023-04-03T15:35:20;29.10;38.10
52471;DHT22;38382;53.160;7.026;2023-04-03T15:37:46;28.90;38.30
52471;DHT22;38382;53.160;7.026;2023-04-03T15:40:13;28.70;38.30
52471;DHT22;38382;53.160;7.026;2023-04-03T15:42:39;28.50;38.20
52471;DHT22;38382;53.160;7.026;2023-04-03T15:45:06;28.70;38.50
52471;DHT22;38382;53.160;7.026;2023-04-03T15:47:32;28.60;38.40
52471;DHT22;38382;53.160;7.026;2023-04-03T15:49:58;28.50;38.60
52471;DHT22;38382;53.160;7.026;2023-04-03T15:52:24;28.40;38.60
52471;DHT22;38382;53.160;7.026;2023-04-03T15:54:50;28.30;38.70
52471;DHT22;38382;53.160;7.026;2023-04-03T15:57:15;28.30;38.60
52471;DHT22;38382;53.160;7.026;2023-04-03T15:59:41;28.30;38.60
52471;DHT22;38382;53.160;7.026;2023-04-03T16:02:10;28.00;38.70
52471;DHT22;38382;53.160;7.026;2023-04-03T16:04:38;28.00;38.20
52471;DHT22;38382;53.160;7.026;2023-04-03T16:07:04;27.80;38.60
52471;DHT22;38382;53.160;7.026;2023-04-03T16:09:32;27.70;38.80
52471;DHT22;38382;53.160;7.026;2023-04-03T16:11:58;27.50;38.50
52471;DHT22;38382;53.160;7.026;2023-04-03T16:14:24;27.10;38.90
52471;DHT22;38382;53.160;7.026;2023-04-03T16:16:49;26.90;38.80
52471;DHT22;38382;53.160;7.026;2023-04-03T16:19:15;26.60;38.60
52471;DHT22;38382;53.160;7.026;2023-04-03T16:21:41;26.50;38.80
52471;DHT22;38382;53.160;7.026;2023-04-03T16:24:07;26.30;39.50
52471;DHT22;38382;53.160;7.026;2023-04-03T16:26:34;26.10;39.60
52471;DHT22;38382;53.160;7.026;2023-04-03T16:28:59;25.90;39.50
52471;DHT22;38382;53.160;7.026;2023-04-03T16:31:26;25.80;39.70
52471;DHT22;38382;53.160;7.026;2023-04-03T16:33:51;25.60;39.90
52471;DHT22;38382;53.160;7.026;2023-04-03T16:36:17;25.20;39.80
52471;DHT22;38382;53.160;7.026;2023-04-03T16:38:43;24.30;40.30
52471;DHT22;38382;53.160;7.026;2023-04-03T16:41:09;23.50;41.20
52471;DHT22;38382;53.160;7.026;2023-04-03T16:43:35;23.50;41.70
52471;DHT22;38382;53.160;7.026;2023-04-03T16:46:02;23.50;41.40
52471;DHT22;38382;53.160;7.026;2023-04-03T16:48:29;23.60;41.70
52471;DHT22;38382;53.160;7.026;2023-04-03T16:50:55;23.90;41.90
52471;DHT22;38382;53.160;7.026;2023-04-03T16:53:22;24.10;41.20
52471;DHT22;38382;53.160;7.026;2023-04-03T16:55:48;24.50;41.10
52471;DHT22;38382;53.160;7.026;2023-04-03T16:58:14;24.50;41.10
52471;DHT22;38382;53.160;7.026;2023-04-03T17:00:41;24.60;41.50
52471;DHT22;38382;53.160;7.026;2023-04-03T17:03:07;24.70;41.40
52471;DHT22;38382;53.160;7.026;2023-04-03T17:05:32;24.60;41.20
52471;DHT22;38382;53.160;7.026;2023-04-03T17:07:58;24.40;41.00
52471;DHT22;38382;53.160;7.026;2023-04-03T17:10:25;24.20;41.00
52471;DHT22;38382;53.160;7.026;2023-04-03T17:12:51;24.00;40.90
52471;DHT22;38382;53.160;7.026;2023-04-03T17:15:16;23.80;41.10
52471;DHT22;38382;53.160;7.026;2023-04-03T17:17:42;23.40;41.30
52471;DHT22;38382;53.160;7.026;2023-04-03T17:20:09;22.70;42.40
52471;DHT22;38382;53.160;7.026;2023-04-03T17:22:35;21.90;42.50
52471;DHT22;38382;53.160;7.026;2023-04-03T17:25:02;21.00;42.70